Time;durP1;ratioP1;P1;durP2;ratioP2;P2;SDS_P1;SDS_P2;PMS_P1;PMS_P2;Temp;Humidity;BMP_temperature;BMP_pressure;BME280_temperature;BME280_humidity;BME280_pressure;Samples;Min_cycle;Max_cycle;Signal;HPM_P1;HPM_P2
2023/10/16 00:00:47;;;;;;;;;;;6.70;88.60;;;;;;5037157;28;19970;-82
2023/10/16 00:03:14;;;;;;;;;;;6.70;88.20;;;;;;5035650;28;19920;-83
2023/10/16 00:05:49;;;;;;;;;;;6.70;88.50;;;;;;5053072;28;19959;-84
2023/10/16 00:08:18;;;;;;;;;;;6.80;88.40;;;;;;5039268;28;20004;-82
2023/10/16 00:10:56;;;;;;;;;;;6.70;88.50;;;;;;5032750;28;19913;-82
2023/10/16 00:13:28;;;;;;;;;;;6.80;88.50;;;;;;5034853;28;20289;-82
2023/10/16 00:15:54;;;;;;;;;;;6.60;88.30;;;;;;5040442;28;19909;-82
2023/10/16 00:18:22;;;;;;;;;;;6.60;88.90;;;;;;5048438;28;19921;-82
2023/10/16 00:20:48;;;;;;;;;;;6.80;88.60;;;;;;5037738;28;19967;-82
2023/10/16 00:23:13;;;;;;;;;;;6.70;88.60;;;;;;5040013;28;19952;-82
2023/10/16 00:25:39;;;;;;;;;;;6.60;88.50;;;;;;5037433;28;19925;-82
2023/10/16 00:28:06;;;;;;;;;;;6.60;88.80;;;;;;5038719;28;19956;-82
2023/10/16 00:30:31;;;;;;;;;;;6.60;88.60;;;;;;5057415;28;19960;-83
2023/10/16 00:32:58;;;;;;;;;;;6.70;88.80;;;;;;5040402;28;20305;-82
2023/10/16 00:35:23;;;;;;;;;;;6.80;88.70;;;;;;5038657;28;19921;-82
2023/10/16 00:37:50;;;;;;;;;;;6.70;88.30;;;;;;5036461;28;19913;-82
2023/10/16 00:40:29;;;;;;;;;;;6.80;88.10;;;;;;5041023;28;20015;-82
2023/10/16 00:42:55;;;;;;;;;;;6.70;88.10;;;;;;5036571;28;19913;-82
2023/10/16 00:45:20;;;;;;;;;;;6.70;87.90;;;;;;5037329;28;19943;-82
2023/10/16 00:47:47;;;;;;;;;;;6.80;87.80;;;;;;5038148;28;19988;-82
2023/10/16 00:50:14;;;;;;;;;;;6.80;87.50;;;;;;5036802;28;19917;-82
2023/10/16 00:52:42;;;;;;;;;;;6.70;87.50;;;;;;5039578;28;19921;-83
2023/10/16 00:55:11;;;;;;;;;;;6.60;87.70;;;;;;5048910;28;20381;-83
2023/10/16 00:57:42;;;;;;;;;;;6.70;87.70;;;;;;5033933;28;19913;-83
2023/10/16 01:00:12;;;;;;;;;;;6.70;87.90;;;;;;5038381;28;19955;-83
2023/10/16 01:02:40;;;;;;;;;;;6.60;87.90;;;;;;5039745;28;19913;-83
2023/10/16 01:05:12;;;;;;;;;;;6.60;87.60;;;;;;5036438;28;19964;-82
2023/10/16 01:07:38;;;;;;;;;;;6.60;87.60;;;;;;5049769;28;19913;-82
2023/10/16 01:10:10;;;;;;;;;;;6.60;87.80;;;;;;5037379;28;19974;-82
2023/10/16 01:12:36;;;;;;;;;;;6.60;88.00;;;;;;5033182;28;19920;-82
2023/10/16 01:15:04;;;;;;;;;;;6.50;88.20;;;;;;5031738;28;19913;-83
2023/10/16 01:17:30;;;;;;;;;;;6.50;88.40;;;;;;5052280;28;19921;-82
2023/10/16 01:19:56;;;;;;;;;;;6.60;88.40;;;;;;5053500;28;19932;-83
2023/10/16 01:22:22;;;;;;;;;;;6.60;88.70;;;;;;5039879;28;20954;-84
2023/10/16 01:24:48;;;;;;;;;;;6.60;89.00;;;;;;5036755;28;20043;-83
2023/10/16 01:27:33;;;;;;;;;;;6.60;88.50;;;;;;5038954;28;20402;-83
2023/10/16 01:29:59;;;;;;;;;;;6.60;88.00;;;;;;5036181;28;19976;-84
2023/10/16 01:32:26;;;;;;;;;;;6.60;88.00;;;;;;5036635;28;19920;-84
2023/10/16 01:34:55;;;;;;;;;;;6.60;88.00;;;;;;5036745;28;20375;-84
2023/10/16 01:37:25;;;;;;;;;;;6.70;87.80;;;;;;5041370;28;20219;-83
2023/10/16 01:39:54;;;;;;;;;;;6.70;87.40;;;;;;5033442;28;20278;-83
2023/10/16 01:42:20;;;;;;;;;;;6.70;87.10;;;;;;5031608;28;20239;-83
2023/10/16 01:44:46;;;;;;;;;;;6.80;86.80;;;;;;5032621;28;19923;-83
2023/10/16 01:47:15;;;;;;;;;;;6.70;86.90;;;;;;5032424;28;19909;-83
2023/10/16 01:49:41;;;;;;;;;;;6.80;86.60;;;;;;5033261;28;19913;-83
2023/10/16 01:52:11;;;;;;;;;;;6.80;86.60;;;;;;5037416;28;19920;-83
2023/10/16 01:54:41;;;;;;;;;;;6.80;86.30;;;;;;5030749;28;20318;-83
2023/10/16 01:57:10;;;;;;;;;;;6.80;86.10;;;;;;5034834;28;19911;-83
2023/10/16 01:59:54;;;;;;;;;;;6.60;86.80;;;;;;5042264;28;19992;-83
2023/10/16 02:02:19;;;;;;;;;;;6.60;87.20;;;;;;5033145;28;20242;-83
2023/10/16 02:04:44;;;;;;;;;;;6.60;87.20;;;;;;5036253;28;20443;-83
2023/10/16 02:07:11;;;;;;;;;;;6.60;87.40;;;;;;5036723;28;19909;-83
2023/10/16 02:09:38;;;;;;;;;;;6.60;87.70;;;;;;5031550;28;20306;-83
2023/10/16 02:12:16;;;;;;;;;;;6.60;87.20;;;;;;5033573;28;20044;-83
2023/10/16 02:14:42;;;;;;;;;;;6.60;87.10;;;;;;5040879;28;19948;-83
2023/10/16 02:17:29;;;;;;;;;;;6.60;86.90;;;;;;5041855;28;19913;-83
2023/10/16 02:19:54;;;;;;;;;;;6.60;86.90;;;;;;5037082;28;19913;-83
2023/10/16 02:22:22;;;;;;;;;;;6.50;86.70;;;;;;5038619;28;19935;-83
2023/10/16 02:24:49;;;;;;;;;;;6.60;86.70;;;;;;5035557;28;19924;-83
2023/10/16 02:27:18;;;;;;;;;;;6.50;86.50;;;;;;5031195;28;19923;-83
2023/10/16 02:29:49;;;;;;;;;;;6.60;86.50;;;;;;5038293;28;19920;-83
2023/10/16 02:32:15;;;;;;;;;;;6.50;86.70;;;;;;5034993;28;20128;-84
2023/10/16 02:34:41;;;;;;;;;;;6.60;86.50;;;;;;5037353;28;20301;-83
2023/10/16 02:37:14;;;;;;;;;;;6.40;87.10;;;;;;5036381;28;19913;-83
2023/10/16 02:39:41;;;;;;;;;;;6.30;87.40;;;;;;5030496;28;19960;-83
2023/10/16 02:42:12;;;;;;;;;;;6.30;87.80;;;;;;5032957;28;19921;-83
2023/10/16 02:44:42;;;;;;;;;;;6.30;88.10;;;;;;5038467;28;19928;-84
2023/10/16 02:47:19;;;;;;;;;;;6.30;87.90;;;;;;5033971;28;19964;-84
2023/10/16 02:49:47;;;;;;;;;;;6.40;88.00;;;;;;5037229;28;19913;-83
2023/10/16 02:52:14;;;;;;;;;;;6.30;88.00;;;;;;5034781;28;19927;-83
2023/10/16 02:54:40;;;;;;;;;;;6.20;88.00;;;;;;5034223;28;19917;-83
2023/10/16 02:57:10;;;;;;;;;;;6.20;87.90;;;;;;5048293;28;19903;-83
2023/10/16 02:59:38;;;;;;;;;;;6.20;88.10;;;;;;5055202;28;19939;-83
2023/10/16 03:02:09;;;;;;;;;;;6.20;88.20;;;;;;5038844;28;19913;-83
2023/10/16 03:04:34;;;;;;;;;;;6.30;88.50;;;;;;5041361;28;19917;-84
2023/10/16 03:07:00;;;;;;;;;;;6.30;88.00;;;;;;5034774;28;19963;-83
2023/10/16 03:09:25;;;;;;;;;;;6.30;88.10;;;;;;5042248;28;19935;-83
2023/10/16 03:12:10;;;;;;;;;;;6.30;87.90;;;;;;5039397;28;20024;-83
2023/10/16 03:17:25;;;;;;;;;;;6.30;87.80;;;;;;5042791;28;19989;-83
2023/10/16 03:19:51;;;;;;;;;;;6.20;87.60;;;;;;5041779;28;19913;-84
2023/10/16 03:22:21;;;;;;;;;;;6.10;87.80;;;;;;5040403;28;19917;-83
2023/10/16 03:24:50;;;;;;;;;;;6.20;88.00;;;;;;5041396;28;19921;-83
2023/10/16 03:27:28;;;;;;;;;;;6.10;88.10;;;;;;5039732;28;19913;-83
2023/10/16 03:29:55;;;;;;;;;;;6.10;88.00;;;;;;5044044;28;20007;-83
2023/10/16 03:32:21;;;;;;;;;;;6.10;87.90;;;;;;5041615;28;19925;-84
2023/10/16 03:34:46;;;;;;;;;;;6.10;88.40;;;;;;5038564;28;19916;-83
2023/10/16 03:37:14;;;;;;;;;;;6.10;88.50;;;;;;5045877;28;19923;-83
2023/10/16 03:39:44;;;;;;;;;;;6.10;88.60;;;;;;5055859;28;19917;-84
2023/10/16 03:42:17;;;;;;;;;;;6.10;88.50;;;;;;5040918;28;19913;-84
2023/10/16 03:44:43;;;;;;;;;;;6.20;88.60;;;;;;5044625;28;19921;-84
2023/10/16 03:47:10;;;;;;;;;;;6.20;88.70;;;;;;5038582;28;19913;-84
2023/10/16 03:49:38;;;;;;;;;;;6.20;88.50;;;;;;5036475;28;19913;-83
2023/10/16 03:52:07;;;;;;;;;;;6.20;88.20;;;;;;5038060;28;19920;-83
2023/10/16 03:54:39;;;;;;;;;;;6.20;88.20;;;;;;5035210;28;20314;-82
2023/10/16 03:57:09;;;;;;;;;;;6.20;88.20;;;;;;5031565;28;19917;-82
2023/10/16 03:59:42;;;;;;;;;;;6.20;88.40;;;;;;5029716;28;19913;-82
2023/10/16 04:02:16;;;;;;;;;;;6.10;88.60;;;;;;5028158;28;19914;-82
2023/10/16 04:04:41;;;;;;;;;;;6.10;88.80;;;;;;5026938;28;19917;-82
2023/10/16 04:07:13;;;;;;;;;;;6.10;88.80;;;;;;5032290;28;19913;-83
2023/10/16 04:09:49;;;;;;;;;;;6.10;88.40;;;;;;5030896;28;19909;-83
2023/10/16 04:12:21;;;;;;;;;;;6.20;88.10;;;;;;5036206;28;19979;-82
2023/10/16 04:14:55;;;;;;;;;;;6.30;88.00;;;;;;5033399;28;19967;-83
2023/10/16 04:17:34;;;;;;;;;;;6.20;87.60;;;;;;5041121;28;19971;-83
2023/10/16 04:23:29;;;;;;;;;;;6.10;87.80;;;;;;4989886;28;19941;-83
2023/10/16 04:31:55;;;;;;;;;;;6.10;88.30;;;;;;5036900;28;19944;-83
2023/10/16 04:36:52;;;;;;;;;;;6.00;88.20;;;;;;5034948;28;19913;-83
2023/10/16 04:45:24;;;;;;;;;;;6.00;88.00;;;;;;5034887;28;19931;-83
2023/10/16 04:50:30;;;;;;;;;;;6.00;88.20;;;;;;5029243;28;20007;-82
2023/10/16 05:00:57;;;;;;;;;;;6.10;88.70;;;;;;5033808;28;19913;-83
2023/10/16 06:14:37;;;;;;;;;;;6.00;88.50;;;;;;5028695;28;19916;-82
2023/10/16 06:17:13;;;;;;;;;;;6.00;88.60;;;;;;5030761;28;19921;-81
2023/10/16 06:19:42;;;;;;;;;;;6.10;88.30;;;;;;5029794;28;20326;-82
2023/10/16 06:22:08;;;;;;;;;;;6.10;87.90;;;;;;5033850;28;20396;-80
2023/10/16 06:24:38;;;;;;;;;;;6.10;87.80;;;;;;5030120;28;19920;-82
2023/10/16 06:27:10;;;;;;;;;;;6.20;87.90;;;;;;5037127;28;19932;-85
2023/10/16 06:29:41;;;;;;;;;;;6.20;87.90;;;;;;5030108;28;19913;-83
2023/10/16 06:32:19;;;;;;;;;;;6.30;87.90;;;;;;5030253;28;20404;-82
2023/10/16 06:34:52;;;;;;;;;;;6.20;87.70;;;;;;5036039;28;19913;-82
2023/10/16 06:37:17;;;;;;;;;;;6.20;87.60;;;;;;5038514;28;19940;-84
2023/10/16 06:39:58;;;;;;;;;;;6.20;87.90;;;;;;5033822;28;20012;-84
2023/10/16 06:42:24;;;;;;;;;;;6.10;87.80;;;;;;5032030;28;19913;-84
2023/10/16 06:44:50;;;;;;;;;;;6.20;87.90;;;;;;5042332;28;19988;-81
2023/10/16 06:47:16;;;;;;;;;;;6.20;87.90;;;;;;5038362;28;19921;-83
2023/10/16 06:49:42;;;;;;;;;;;6.20;87.70;;;;;;5027612;28;19914;-83
2023/10/16 06:52:12;;;;;;;;;;;6.20;87.80;;;;;;5034011;28;19917;-83
2023/10/16 06:54:39;;;;;;;;;;;6.10;88.20;;;;;;5032623;28;20272;-84
2023/10/16 06:57:10;;;;;;;;;;;6.20;88.20;;;;;;5033703;28;19917;-83
2023/10/16 06:59:36;;;;;;;;;;;6.20;88.10;;;;;;5035146;28;19920;-83
2023/10/16 07:02:02;;;;;;;;;;;6.30;88.20;;;;;;5034036;28;19928;-83
2023/10/16 07:04:31;;;;;;;;;;;6.30;88.10;;;;;;5031286;28;19926;-84
2023/10/16 07:06:57;;;;;;;;;;;6.40;87.80;;;;;;5027232;28;19920;-82
2023/10/16 07:09:35;;;;;;;;;;;6.50;87.60;;;;;;5032251;28;19920;-86
2023/10/16 07:12:03;;;;;;;;;;;6.40;87.60;;;;;;5047115;28;19948;-83
2023/10/16 07:14:29;;;;;;;;;;;6.50;87.60;;;;;;5028288;28;19928;-82
2023/10/16 07:16:54;;;;;;;;;;;6.50;87.60;;;;;;5034073;28;19914;-81
2023/10/16 07:19:19;;;;;;;;;;;6.70;87.90;;;;;;5028874;28;19924;-80
2023/10/16 07:21:48;;;;;;;;;;;6.80;87.60;;;;;;5020955;28;19913;-82
2023/10/16 07:24:15;;;;;;;;;;;6.90;87.30;;;;;;5032547;28;20920;-83
2023/10/16 07:26:41;;;;;;;;;;;7.00;87.20;;;;;;5035357;28;19913;-82
2023/10/16 07:29:07;;;;;;;;;;;7.10;86.80;;;;;;5025162;28;19917;-84
2023/10/16 07:31:32;;;;;;;;;;;7.10;86.90;;;;;;5033640;28;20280;-82
2023/10/16 07:34:04;;;;;;;;;;;7.20;86.80;;;;;;5034112;28;20350;-82
2023/10/16 07:36:32;;;;;;;;;;;7.40;86.80;;;;;;5033459;28;20318;-84
2023/10/16 07:38:57;;;;;;;;;;;7.40;86.60;;;;;;5031913;28;19913;-83
2023/10/16 07:41:26;;;;;;;;;;;7.60;86.40;;;;;;5031166;28;19935;-82
2023/10/16 07:43:57;;;;;;;;;;;7.60;85.90;;;;;;5033998;28;20420;-82
2023/10/16 07:46:29;;;;;;;;;;;7.60;85.70;;;;;;5032086;28;19917;-82
2023/10/16 07:48:56;;;;;;;;;;;7.60;85.80;;;;;;5027804;28;19913;-84
2023/10/16 07:51:28;;;;;;;;;;;7.70;85.80;;;;;;5030086;28;19917;-87
2023/10/16 07:53:54;;;;;;;;;;;7.80;85.40;;;;;;5027283;28;20005;-83
2023/10/16 07:56:25;;;;;;;;;;;7.70;85.40;;;;;;5033548;28;19917;-82
2023/10/16 07:58:56;;;;;;;;;;;7.80;85.40;;;;;;5033044;28;19917;-84
2023/10/16 08:06:52;;;;;;;;;;;7.90;85.20;;;;;;5032971;28;20339;-82
2023/10/16 08:11:58;;;;;;;;;;;7.80;85.20;;;;;;5036225;28;20464;-83
2023/10/16 08:14:27;;;;;;;;;;;7.90;85.30;;;;;;5035214;28;19962;-83
2023/10/16 08:17:14;;;;;;;;;;;8.00;85.10;;;;;;5053195;28;19944;-82
2023/10/16 08:19:39;;;;;;;;;;;8.00;85.50;;;;;;5047268;28;19914;-83
2023/10/16 08:22:07;;;;;;;;;;;8.00;85.50;;;;;;5038398;28;20567;-83
2023/10/16 08:24:34;;;;;;;;;;;8.00;85.70;;;;;;5037852;28;19917;-82
2023/10/16 08:27:19;;;;;;;;;;;8.10;85.40;;;;;;5037745;28;19913;-82
2023/10/16 08:29:54;;;;;;;;;;;8.10;84.90;;;;;;5031291;28;19959;-83
2023/10/16 08:35:09;;;;;;;;;;;8.30;85.00;;;;;;5036112;28;19944;-82
2023/10/16 08:37:41;;;;;;;;;;;8.30;84.70;;;;;;5032529;28;19913;-82
2023/10/16 08:40:18;;;;;;;;;;;8.40;84.40;;;;;;5033642;28;19923;-82
2023/10/16 08:42:45;;;;;;;;;;;8.50;84.10;;;;;;5032077;28;19917;-81
2023/10/16 08:45:14;;;;;;;;;;;8.60;83.60;;;;;;5036066;28;19967;-81
2023/10/16 08:47:42;;;;;;;;;;;8.60;83.70;;;;;;5035940;28;19959;-82
2023/10/16 08:50:17;;;;;;;;;;;8.70;83.20;;;;;;5034923;28;19921;-82
2023/10/16 08:52:51;;;;;;;;;;;8.70;83.50;;;;;;5025465;28;19913;-81
2023/10/16 08:55:17;;;;;;;;;;;8.70;83.50;;;;;;5031995;28;19931;-82
2023/10/16 08:57:44;;;;;;;;;;;8.60;83.60;;;;;;5034781;28;19913;-81
2023/10/16 09:00:16;;;;;;;;;;;8.60;83.80;;;;;;5036105;28;19921;-82
2023/10/16 09:02:42;;;;;;;;;;;8.60;83.80;;;;;;5027033;28;19996;-81
2023/10/16 09:05:08;;;;;;;;;;;8.60;84.00;;;;;;5031948;28;20000;-81
2023/10/16 09:07:34;;;;;;;;;;;8.70;83.90;;;;;;5032164;28;19932;-82
2023/10/16 09:10:02;;;;;;;;;;;8.80;83.90;;;;;;5038904;28;19981;-81
2023/10/16 09:12:27;;;;;;;;;;;8.90;83.80;;;;;;5068754;28;20001;-80
2023/10/16 09:14:53;;;;;;;;;;;9.00;83.80;;;;;;5051661;28;19917;-83
2023/10/16 09:17:19;;;;;;;;;;;8.90;83.50;;;;;;5038210;28;19909;-81
2023/10/16 09:19:48;;;;;;;;;;;9.10;83.40;;;;;;5041008;28;19909;-82
2023/10/16 09:22:15;;;;;;;;;;;9.10;83.00;;;;;;5033957;28;19909;-80
2023/10/16 09:24:44;;;;;;;;;;;9.20;83.00;;;;;;5032865;28;19925;-81
2023/10/16 09:27:16;;;;;;;;;;;9.30;83.20;;;;;;5031918;28;20351;-81
2023/10/16 09:29:53;;;;;;;;;;;9.50;82.90;;;;;;5029371;28;19913;-81
2023/10/16 09:32:25;;;;;;;;;;;9.50;82.50;;;;;;5032602;28;19913;-83
2023/10/16 09:34:52;;;;;;;;;;;9.50;82.60;;;;;;5026629;28;19944;-81
2023/10/16 09:37:22;;;;;;;;;;;9.50;82.60;;;;;;5032213;28;20378;-81
2023/10/16 09:39:48;;;;;;;;;;;9.60;82.40;;;;;;5031721;28;19913;-81
2023/10/16 09:42:14;;;;;;;;;;;9.60;82.60;;;;;;5030296;28;19988;-80
2023/10/16 09:44:41;;;;;;;;;;;9.70;82.30;;;;;;5030842;28;20162;-81
2023/10/16 09:47:25;;;;;;;;;;;9.80;82.70;;;;;;5030494;28;19959;-82
2023/10/16 09:49:58;;;;;;;;;;;9.80;82.40;;;;;;5034597;28;19921;-82
2023/10/16 09:52:24;;;;;;;;;;;9.80;82.20;;;;;;5033673;28;19960;-81
2023/10/16 09:54:51;;;;;;;;;;;9.90;82.00;;;;;;5032986;28;19920;-82
2023/10/16 09:57:22;;;;;;;;;;;10.00;82.40;;;;;;5033597;28;19913;-82
2023/10/16 09:59:54;;;;;;;;;;;10.10;82.70;;;;;;5031765;28;20011;-82
2023/10/16 10:02:25;;;;;;;;;;;10.30;82.30;;;;;;5047661;28;19909;-83
2023/10/16 10:04:59;;;;;;;;;;;10.50;81.20;;;;;;5033102;28;20056;-81
2023/10/16 10:07:36;;;;;;;;;;;10.40;80.10;;;;;;5034141;28;19914;-81
2023/10/16 10:12:50;;;;;;;;;;;10.20;80.40;;;;;;5028945;28;19920;-81
2023/10/16 10:15:21;;;;;;;;;;;10.30;79.90;;;;;;5029464;28;19920;-81
2023/10/16 10:17:48;;;;;;;;;;;10.20;80.10;;;;;;5053134;28;19913;-82
2023/10/16 10:20:26;;;;;;;;;;;10.20;79.90;;;;;;5035902;28;19920;-81
2023/10/16 10:23:04;;;;;;;;;;;10.30;79.90;;;;;;5037463;28;19913;-81
2023/10/16 10:25:37;;;;;;;;;;;10.20;79.40;;;;;;5038300;28;20211;-81
2023/10/16 10:28:09;;;;;;;;;;;10.30;79.10;;;;;;5036324;28;19920;-81
2023/10/16 10:30:39;;;;;;;;;;;10.30;79.60;;;;;;5038095;28;19913;-82
2023/10/16 10:33:06;;;;;;;;;;;10.30;79.60;;;;;;5035803;28;19922;-81
2023/10/16 10:35:38;;;;;;;;;;;10.40;79.60;;;;;;5047927;28;19897;-83
2023/10/16 10:38:07;;;;;;;;;;;10.40;79.50;;;;;;5054439;28;20289;-82
2023/10/16 10:40:36;;;;;;;;;;;10.40;79.60;;;;;;5037727;28;19913;-83
2023/10/16 10:43:04;;;;;;;;;;;10.50;79.10;;;;;;5038104;28;20000;-83
2023/10/16 10:45:39;;;;;;;;;;;10.50;79.10;;;;;;5038434;28;19984;-83
2023/10/16 10:48:12;;;;;;;;;;;10.60;78.40;;;;;;5037902;28;19916;-82
2023/10/16 10:50:40;;;;;;;;;;;10.80;77.80;;;;;;5038015;28;20484;-83
2023/10/16 10:53:16;;;;;;;;;;;11.00;76.40;;;;;;5036947;28;19916;-82
2023/10/16 10:55:57;;;;;;;;;;;11.00;76.30;;;;;;5033992;28;19913;-81
2023/10/16 10:58:31;;;;;;;;;;;11.00;75.80;;;;;;5034120;28;20417;-84
2023/10/16 11:01:05;;;;;;;;;;;10.80;77.70;;;;;;5035294;28;19979;-84
2023/10/16 11:03:33;;;;;;;;;;;10.80;77.60;;;;;;5035385;28;19921;-84
2023/10/16 11:05:59;;;;;;;;;;;10.60;78.70;;;;;;5036096;28;19917;-84
2023/10/16 11:08:29;;;;;;;;;;;10.70;78.50;;;;;;5035956;28;20119;-83
2023/10/16 11:10:56;;;;;;;;;;;10.80;78.30;;;;;;5036902;28;19975;-83
2023/10/16 11:13:22;;;;;;;;;;;10.90;78.10;;;;;;5038383;28;20401;-83
2023/10/16 11:15:58;;;;;;;;;;;10.90;78.70;;;;;;5037599;28;19928;-84
2023/10/16 11:18:26;;;;;;;;;;;11.10;77.00;;;;;;5041212;28;20372;-84
2023/10/16 11:21:03;;;;;;;;;;;11.10;76.90;;;;;;5040879;28;19913;-83
2023/10/16 11:23:32;;;;;;;;;;;11.00;77.70;;;;;;5033723;28;20379;-83
2023/10/16 11:25:58;;;;;;;;;;;11.00;77.90;;;;;;5036045;28;19992;-84
2023/10/16 11:28:39;;;;;;;;;;;11.10;77.40;;;;;;5036453;28;19921;-82
2023/10/16 11:31:09;;;;;;;;;;;11.20;76.30;;;;;;5039121;28;19913;-84
2023/10/16 11:34:00;;;;;;;;;;;11.20;75.60;;;;;;5041272;28;20346;-84
2023/10/16 11:36:31;;;;;;;;;;;11.10;76.50;;;;;;5062520;28;19913;-83
2023/10/16 11:39:01;;;;;;;;;;;11.30;76.40;;;;;;5035999;28;19920;-81
2023/10/16 11:41:28;;;;;;;;;;;11.30;76.70;;;;;;5027843;28;20355;-82
2023/10/16 11:43:54;;;;;;;;;;;11.30;76.10;;;;;;5035400;28;19913;-83
2023/10/16 11:46:44;;;;;;;;;;;11.30;76.50;;;;;;5037929;28;19917;-83
2023/10/16 11:54:45;;;;;;;;;;;11.60;74.60;;;;;;5038357;28;19924;-83
2023/10/16 11:57:13;;;;;;;;;;;11.70;74.70;;;;;;5040205;28;19920;-81
2023/10/16 11:59:38;;;;;;;;;;;11.90;72.40;;;;;;5034510;28;19936;-84
2023/10/16 12:02:14;;;;;;;;;;;11.90;73.00;;;;;;5033791;28;20375;-83
2023/10/16 12:04:40;;;;;;;;;;;11.90;73.40;;;;;;5039489;28;19917;-82
2023/10/16 12:07:07;;;;;;;;;;;12.00;74.10;;;;;;5035572;28;19924;-83
2023/10/16 12:09:42;;;;;;;;;;;11.90;73.60;;;;;;5040691;28;19927;-83
2023/10/16 12:12:11;;;;;;;;;;;12.10;72.70;;;;;;5039410;28;19912;-83
2023/10/16 12:14:40;;;;;;;;;;;12.10;73.40;;;;;;5035884;28;19943;-83
2023/10/16 12:17:06;;;;;;;;;;;12.10;73.60;;;;;;5041912;28;19901;-80
2023/10/16 12:19:32;;;;;;;;;;;12.10;73.30;;;;;;5056891;28;19917;-80
2023/10/16 12:22:00;;;;;;;;;;;12.20;71.80;;;;;;5056605;28;19909;-82
2023/10/16 12:24:26;;;;;;;;;;;12.30;71.40;;;;;;5040796;28;19921;-81
2023/10/16 12:26:52;;;;;;;;;;;12.40;70.50;;;;;;5037133;28;19914;-83
2023/10/16 12:29:20;;;;;;;;;;;12.10;72.20;;;;;;5035487;28;19996;-81
2023/10/16 12:31:48;;;;;;;;;;;12.10;73.40;;;;;;5031061;28;19914;-82
2023/10/16 12:34:16;;;;;;;;;;;12.10;72.60;;;;;;5035904;28;19925;-82
2023/10/16 12:36:43;;;;;;;;;;;12.10;72.90;;;;;;5036380;28;20409;-84
2023/10/16 12:39:28;;;;;;;;;;;12.10;73.00;;;;;;5037257;28;19913;-83
2023/10/16 12:41:57;;;;;;;;;;;12.00;73.70;;;;;;5031725;28;19944;-83
2023/10/16 12:44:26;;;;;;;;;;;12.10;72.50;;;;;;5055154;28;19921;-83
2023/10/16 12:46:53;;;;;;;;;;;12.20;71.00;;;;;;5037493;28;19913;-83
2023/10/16 12:49:19;;;;;;;;;;;12.30;71.10;;;;;;5039630;28;19917;-83
2023/10/16 12:51:45;;;;;;;;;;;12.20;72.60;;;;;;5039345;28;19951;-84
2023/10/16 12:54:12;;;;;;;;;;;12.20;72.40;;;;;;5036912;28;19913;-83
2023/10/16 12:56:41;;;;;;;;;;;12.30;71.10;;;;;;5053221;28;19981;-82
2023/10/16 12:59:08;;;;;;;;;;;12.30;71.50;;;;;;5044525;28;19920;-84
2023/10/16 13:01:36;;;;;;;;;;;12.30;71.40;;;;;;5033472;28;19991;-84
2023/10/16 13:04:06;;;;;;;;;;;12.20;71.70;;;;;;5032972;28;20354;-84
2023/10/16 13:06:34;;;;;;;;;;;12.30;71.40;;;;;;5030729;28;19913;-83
2023/10/16 13:09:02;;;;;;;;;;;12.20;71.70;;;;;;5030755;28;19917;-84
2023/10/16 13:11:28;;;;;;;;;;;12.20;72.70;;;;;;5035235;28;20473;-84
2023/10/16 13:13:56;;;;;;;;;;;12.30;72.20;;;;;;5033215;28;19913;-84
2023/10/16 13:16:26;;;;;;;;;;;12.40;71.10;;;;;;5033776;28;19925;-84
2023/10/16 13:18:57;;;;;;;;;;;12.50;70.90;;;;;;5031154;28;19917;-84
2023/10/16 13:21:32;;;;;;;;;;;12.40;70.70;;;;;;5031596;28;19913;-83
2023/10/16 13:23:59;;;;;;;;;;;12.50;69.30;;;;;;5032654;28;20013;-83
2023/10/16 13:26:25;;;;;;;;;;;12.50;69.40;;;;;;5033456;28;19913;-84
2023/10/16 13:28:52;;;;;;;;;;;12.50;69.30;;;;;;5033745;28;21351;-84
2023/10/16 13:31:19;;;;;;;;;;;12.40;71.20;;;;;;5035687;28;19947;-84
2023/10/16 13:33:49;;;;;;;;;;;12.50;70.90;;;;;;5036358;28;19913;-84
2023/10/16 13:36:17;;;;;;;;;;;12.40;70.50;;;;;;5034308;28;19909;-84
2023/10/16 13:38:48;;;;;;;;;;;12.30;72.60;;;;;;5032579;28;19958;-82
2023/10/16 13:41:19;;;;;;;;;;;12.20;73.40;;;;;;5032405;28;19917;-83
2023/10/16 13:43:45;;;;;;;;;;;12.20;74.60;;;;;;5027244;28;20004;-83
2023/10/16 13:46:13;;;;;;;;;;;12.20;74.80;;;;;;5038789;28;19956;-84
2023/10/16 13:48:45;;;;;;;;;;;12.20;74.40;;;;;;5037193;28;19913;-84
2023/10/16 13:51:17;;;;;;;;;;;12.10;74.00;;;;;;5034876;28;19921;-85
2023/10/16 13:53:43;;;;;;;;;;;12.10;73.90;;;;;;5033840;28;19913;-83
2023/10/16 13:56:11;;;;;;;;;;;12.10;74.20;;;;;;5035066;28;19914;-84
2023/10/16 13:58:36;;;;;;;;;;;12.10;74.40;;;;;;5035130;28;19909;-84
2023/10/16 14:01:02;;;;;;;;;;;12.00;73.40;;;;;;5035478;28;19920;-85
2023/10/16 14:03:28;;;;;;;;;;;12.10;74.90;;;;;;5030153;28;19913;-84
2023/10/16 14:05:55;;;;;;;;;;;12.10;73.70;;;;;;5032138;28;19917;-84
2023/10/16 14:08:30;;;;;;;;;;;12.10;74.20;;;;;;5034630;28;19962;-83
2023/10/16 14:11:03;;;;;;;;;;;12.10;74.30;;;;;;5033496;28;19920;-85
2023/10/16 14:13:38;;;;;;;;;;;12.10;74.60;;;;;;5034642;28;19917;-83
2023/10/16 14:16:11;;;;;;;;;;;12.00;74.00;;;;;;5045105;28;19921;-80
2023/10/16 14:18:38;;;;;;;;;;;11.90;73.80;;;;;;5034774;28;19936;-81
2023/10/16 14:21:08;;;;;;;;;;;11.80;73.80;;;;;;5035143;28;20397;-81
2023/10/16 14:23:34;;;;;;;;;;;11.80;73.30;;;;;;5034085;28;19916;-81
2023/10/16 14:26:00;;;;;;;;;;;11.80;73.40;;;;;;5034747;28;19921;-82
2023/10/16 14:28:27;;;;;;;;;;;11.90;72.80;;;;;;5033871;28;19951;-82
2023/10/16 14:30:54;;;;;;;;;;;12.00;72.10;;;;;;5032701;28;19924;-80
2023/10/16 14:33:21;;;;;;;;;;;12.00;72.30;;;;;;5034886;28;20421;-81
2023/10/16 14:35:49;;;;;;;;;;;12.00;72.90;;;;;;5040288;28;19921;-86
2023/10/16 14:38:16;;;;;;;;;;;12.00;72.90;;;;;;5031479;28;20362;-85
2023/10/16 14:40:42;;;;;;;;;;;12.10;72.00;;;;;;5031870;28;19928;-83
2023/10/16 14:43:08;;;;;;;;;;;12.00;71.60;;;;;;5035317;28;19913;-83
2023/10/16 14:45:36;;;;;;;;;;;11.90;72.70;;;;;;5032401;28;19917;-83
2023/10/16 14:48:03;;;;;;;;;;;12.00;73.80;;;;;;5033122;28;19918;-82
2023/10/16 14:50:32;;;;;;;;;;;12.10;73.80;;;;;;5037010;28;19964;-84
2023/10/16 14:52:58;;;;;;;;;;;12.10;71.70;;;;;;5037292;28;19959;-83
2023/10/16 14:55:24;;;;;;;;;;;12.20;71.40;;;;;;5032803;28;19944;-83
2023/10/16 14:57:49;;;;;;;;;;;12.40;69.70;;;;;;5035464;28;19920;-82
2023/10/16 15:00:21;;;;;;;;;;;12.30;69.70;;;;;;5031485;28;20009;-83
2023/10/16 15:02:47;;;;;;;;;;;12.40;69.70;;;;;;5029953;28;19913;-84
2023/10/16 15:05:12;;;;;;;;;;;12.30;71.40;;;;;;5041556;28;19917;-82
2023/10/16 15:07:38;;;;;;;;;;;12.40;70.70;;;;;;5033696;28;20493;-83
2023/10/16 15:10:06;;;;;;;;;;;12.40;70.30;;;;;;5039165;28;19936;-82
2023/10/16 15:12:31;;;;;;;;;;;12.30;71.50;;;;;;5036276;28;20438;-82
2023/10/16 15:14:57;;;;;;;;;;;12.10;72.50;;;;;;5055390;28;19909;-81
2023/10/16 15:17:22;;;;;;;;;;;12.10;72.10;;;;;;5052973;28;19914;-82
2023/10/16 15:19:48;;;;;;;;;;;12.10;73.20;;;;;;5037069;28;19936;-82
2023/10/16 15:22:14;;;;;;;;;;;12.10;74.40;;;;;;5036288;28;19954;-83
2023/10/16 15:24:40;;;;;;;;;;;12.00;75.20;;;;;;5052371;28;19936;-81
2023/10/16 15:27:05;;;;;;;;;;;12.00;72.90;;;;;;5058783;28;19913;-81
2023/10/16 15:29:31;;;;;;;;;;;11.90;72.60;;;;;;5043490;28;19924;-83
2023/10/16 15:31:57;;;;;;;;;;;11.90;72.10;;;;;;5038761;28;19909;-83
2023/10/16 15:34:25;;;;;;;;;;;11.90;71.70;;;;;;5039109;28;19915;-84
2023/10/16 15:36:51;;;;;;;;;;;11.80;73.10;;;;;;5035721;28;19917;-84
2023/10/16 15:39:16;;;;;;;;;;;11.70;74.30;;;;;;5036678;28;19920;-84
2023/10/16 15:41:45;;;;;;;;;;;11.70;75.80;;;;;;5033893;28;20050;-82
2023/10/16 15:44:10;;;;;;;;;;;11.70;76.70;;;;;;5037803;28;19913;-83
2023/10/16 15:46:36;;;;;;;;;;;11.60;76.50;;;;;;5035226;28;19913;-84
2023/10/16 15:49:01;;;;;;;;;;;11.60;77.10;;;;;;5033453;28;20015;-83
2023/10/16 15:51:30;;;;;;;;;;;11.60;77.60;;;;;;5033205;28;19924;-85
2023/10/16 15:53:55;;;;;;;;;;;11.60;78.00;;;;;;5032322;28;19960;-82
2023/10/16 15:56:24;;;;;;;;;;;11.50;78.70;;;;;;5033711;28;19917;-82
2023/10/16 15:58:50;;;;;;;;;;;11.50;78.90;;;;;;5029272;28;20007;-82
2023/10/16 16:01:16;;;;;;;;;;;11.50;79.10;;;;;;5030564;28;19952;-82
2023/10/16 16:03:42;;;;;;;;;;;11.50;79.40;;;;;;5034122;28;19917;-82
2023/10/16 16:06:08;;;;;;;;;;;11.50;79.50;;;;;;5035776;28;19927;-82
2023/10/16 16:08:38;;;;;;;;;;;11.40;79.50;;;;;;5032713;28;19913;-82
2023/10/16 16:11:04;;;;;;;;;;;11.30;80.40;;;;;;5034374;28;19917;-82
2023/10/16 16:13:32;;;;;;;;;;;11.30;80.30;;;;;;5035092;28;20168;-82
2023/10/16 16:16:01;;;;;;;;;;;11.30;80.80;;;;;;5036233;28;19917;-83
2023/10/16 16:18:27;;;;;;;;;;;11.20;81.10;;;;;;5042861;28;19924;-81
2023/10/16 16:20:53;;;;;;;;;;;11.20;81.10;;;;;;5046383;28;19909;-82
2023/10/16 16:23:20;;;;;;;;;;;11.10;81.70;;;;;;5053504;28;19920;-83
2023/10/16 16:25:49;;;;;;;;;;;11.00;81.50;;;;;;5037463;28;19913;-82
2023/10/16 16:28:15;;;;;;;;;;;11.00;81.70;;;;;;5035274;28;19949;-83
2023/10/16 16:30:41;;;;;;;;;;;11.00;81.60;;;;;;5035508;28;19966;-82
2023/10/16 16:33:06;;;;;;;;;;;10.90;81.70;;;;;;5036278;28;20023;-83
2023/10/16 16:35:32;;;;;;;;;;;10.80;82.00;;;;;;5037496;28;19917;-83